sensor_id;sensor_type;location;lat;lon;timestamp;P1;durP1;ratioP1;P2;durP2;ratioP2
43990;SDS011;29654;50.784;20.604;2024-02-23T00:00:33;4.45;;;4.05;;
43990;SDS011;29654;50.784;20.604;2024-02-23T00:05:36;3.53;;;3.25;;
43990;SDS011;29654;50.784;20.604;2024-02-23T00:10:39;3.75;;;3.45;;
43990;SDS011;29654;50.784;20.604;2024-02-23T00:15:43;5.75;;;3.50;;
43990;SDS011;29654;50.784;20.604;2024-02-23T00:20:46;3.42;;;3.13;;
43990;SDS011;29654;50.784;20.604;2024-02-23T00:25:49;3.42;;;3.10;;
43990;SDS011;29654;50.784;20.604;2024-02-23T00:30:53;3.47;;;2.97;;
43990;SDS011;29654;50.784;20.604;2024-02-23T00:35:56;3.38;;;3.08;;
43990;SDS011;29654;50.784;20.604;2024-02-23T00:40:59;3.85;;;3.05;;
43990;SDS011;29654;50.784;20.604;2024-02-23T00:46:03;2.35;;;2.15;;
43990;SDS011;29654;50.784;20.604;2024-02-23T00:51:06;2.63;;;2.42;;
43990;SDS011;29654;50.784;20.604;2024-02-23T00:56:09;2.90;;;2.70;;
43990;SDS011;29654;50.784;20.604;2024-02-23T01:01:14;2.72;;;2.53;;
43990;SDS011;29654;50.784;20.604;2024-02-23T01:06:17;2.50;;;2.30;;
43990;SDS011;29654;50.784;20.604;2024-02-23T01:11:20;2.40;;;2.20;;
43990;SDS011;29654;50.784;20.604;2024-02-23T01:16:25;3.05;;;2.42;;
43990;SDS011;29654;50.784;20.604;2024-02-23T01:21:28;2.25;;;2.05;;
43990;SDS011;29654;50.784;20.604;2024-02-23T01:26:31;2.38;;;2.17;;
43990;SDS011;29654;50.784;20.604;2024-02-23T01:31:35;1.58;;;1.48;;
43990;SDS011;29654;50.784;20.604;2024-02-23T01:36:38;2.13;;;1.70;;
43990;SDS011;29654;50.784;20.604;2024-02-23T01:41:41;1.98;;;1.77;;
43990;SDS011;29654;50.784;20.604;2024-02-23T01:46:46;1.70;;;1.50;;
43990;SDS011;29654;50.784;20.604;2024-02-23T01:51:49;1.60;;;1.50;;
43990;SDS011;29654;50.784;20.604;2024-02-23T01:56:52;1.58;;;1.48;;
43990;SDS011;29654;50.784;20.604;2024-02-23T02:01:57;1.88;;;1.70;;
43990;SDS011;29654;50.784;20.604;2024-02-23T02:07:00;1.70;;;1.42;;
43990;SDS011;29654;50.784;20.604;2024-02-23T02:12:03;1.63;;;1.52;;
43990;SDS011;29654;50.784;20.604;2024-02-23T02:17:09;1.30;;;1.20;;
43990;SDS011;29654;50.784;20.604;2024-02-23T02:22:14;1.60;;;1.50;;
43990;SDS011;29654;50.784;20.604;2024-02-23T02:27:17;1.50;;;1.40;;
43990;SDS011;29654;50.784;20.604;2024-02-23T02:32:22;1.60;;;1.48;;
43990;SDS011;29654;50.784;20.604;2024-02-23T02:37:25;1.60;;;1.48;;
43990;SDS011;29654;50.784;20.604;2024-02-23T02:42:28;1.50;;;1.40;;
43990;SDS011;29654;50.784;20.604;2024-02-23T02:47:35;1.88;;;1.77;;
43990;SDS011;29654;50.784;20.604;2024-02-23T02:52:38;2.13;;;1.65;;
43990;SDS011;29654;50.784;20.604;2024-02-23T02:57:41;2.40;;;1.90;;
43990;SDS011;29654;50.784;20.604;2024-02-23T03:02:47;3.42;;;2.47;;
43990;SDS011;29654;50.784;20.604;2024-02-23T03:07:50;3.45;;;2.42;;
43990;SDS011;29654;50.784;20.604;2024-02-23T03:12:55;3.63;;;2.63;;
43990;SDS011;29654;50.784;20.604;2024-02-23T03:18:01;3.20;;;2.40;;
43990;SDS011;29654;50.784;20.604;2024-02-23T03:23:04;2.28;;;2.00;;
43990;SDS011;29654;50.784;20.604;2024-02-23T03:28:07;1.58;;;1.48;;
43990;SDS011;29654;50.784;20.604;2024-02-23T03:33:11;2.30;;;1.50;;
43990;SDS011;29654;50.784;20.604;2024-02-23T03:38:14;1.20;;;1.10;;
43990;SDS011;29654;50.784;20.604;2024-02-23T03:43:17;3.42;;;1.50;;
43990;SDS011;29654;50.784;20.604;2024-02-23T03:48:21;1.17;;;1.08;;
43990;SDS011;29654;50.784;20.604;2024-02-23T03:53:24;1.23;;;1.05;;
43990;SDS011;29654;50.784;20.604;2024-02-23T03:58:27;1.33;;;1.23;;
43990;SDS011;29654;50.784;20.604;2024-02-23T04:03:33;1.20;;;1.00;;
43990;SDS011;29654;50.784;20.604;2024-02-23T04:08:36;1.73;;;1.00;;
43990;SDS011;29654;50.784;20.604;2024-02-23T04:13:39;1.10;;;0.90;;
43990;SDS011;29654;50.784;20.604;2024-02-23T04:18:43;1.20;;;1.10;;
43990;SDS011;29654;50.784;20.604;2024-02-23T04:23:46;1.55;;;1.20;;
43990;SDS011;29654;50.784;20.604;2024-02-23T04:28:51;1.13;;;0.98;;
43990;SDS011;29654;50.784;20.604;2024-02-23T04:33:57;1.17;;;1.08;;
43990;SDS011;29654;50.784;20.604;2024-02-23T04:39:00;1.30;;;1.23;;
43990;SDS011;29654;50.784;20.604;2024-02-23T04:44:03;1.23;;;1.02;;
43990;SDS011;29654;50.784;20.604;2024-02-23T04:49:07;1.48;;;1.27;;
43990;SDS011;29654;50.784;20.604;2024-02-23T04:54:12;1.60;;;1.23;;
43990;SDS011;29654;50.784;20.604;2024-02-23T04:59:15;0.90;;;0.90;;
43990;SDS011;29654;50.784;20.604;2024-02-23T05:04:19;1.60;;;1.50;;
43990;SDS011;29654;50.784;20.604;2024-02-23T05:09:22;1.30;;;1.20;;
43990;SDS011;29654;50.784;20.604;2024-02-23T05:14:25;1.45;;;1.35;;
43990;SDS011;29654;50.784;20.604;2024-02-23T05:19:30;1.60;;;1.50;;
43990;SDS011;29654;50.784;20.604;2024-02-23T05:24:33;2.38;;;1.52;;
43990;SDS011;29654;50.784;20.604;2024-02-23T05:29:41;1.60;;;1.50;;
43990;SDS011;29654;50.784;20.604;2024-02-23T05:34:45;2.03;;;1.80;;
43990;SDS011;29654;50.784;20.604;2024-02-23T05:39:51;1.98;;;1.88;;
43990;SDS011;29654;50.784;20.604;2024-02-23T05:44:55;1.98;;;1.88;;
43990;SDS011;29654;50.784;20.604;2024-02-23T05:49:59;2.33;;;2.03;;
43990;SDS011;29654;50.784;20.604;2024-02-23T05:55:02;3.17;;;2.30;;
43990;SDS011;29654;50.784;20.604;2024-02-23T06:00:06;2.70;;;2.50;;
43990;SDS011;29654;50.784;20.604;2024-02-23T06:05:14;3.38;;;2.25;;
43990;SDS011;29654;50.784;20.604;2024-02-23T06:10:17;2.13;;;1.88;;
43990;SDS011;29654;50.784;20.604;2024-02-23T06:15:20;3.20;;;2.20;;
43990;SDS011;29654;50.784;20.604;2024-02-23T06:20:24;2.42;;;2.22;;
43990;SDS011;29654;50.784;20.604;2024-02-23T06:25:27;2.60;;;2.30;;
43990;SDS011;29654;50.784;20.604;2024-02-23T06:30:30;3.05;;;2.53;;
43990;SDS011;29654;50.784;20.604;2024-02-23T06:35:34;3.00;;;2.30;;
43990;SDS011;29654;50.784;20.604;2024-02-23T06:40:37;2.50;;;2.30;;
43990;SDS011;29654;50.784;20.604;2024-02-23T06:45:42;3.17;;;2.40;;
43990;SDS011;29654;50.784;20.604;2024-02-23T06:50:46;3.22;;;2.92;;
43990;SDS011;29654;50.784;20.604;2024-02-23T06:55:49;3.15;;;2.80;;
43990;SDS011;29654;50.784;20.604;2024-02-23T07:00:52;3.13;;;2.83;;
43990;SDS011;29654;50.784;20.604;2024-02-23T07:05:56;3.30;;;3.08;;
43990;SDS011;29654;50.784;20.604;2024-02-23T07:10:59;3.28;;;2.92;;
43990;SDS011;29654;50.784;20.604;2024-02-23T07:16:02;3.65;;;3.00;;
43990;SDS011;29654;50.784;20.604;2024-02-23T07:21:07;3.92;;;3.10;;
43990;SDS011;29654;50.784;20.604;2024-02-23T07:26:10;3.55;;;3.25;;
43990;SDS011;29654;50.784;20.604;2024-02-23T07:31:13;3.33;;;3.03;;
43990;SDS011;29654;50.784;20.604;2024-02-23T07:36:17;4.50;;;3.47;;
43990;SDS011;29654;50.784;20.604;2024-02-23T07:41:21;4.07;;;3.38;;
43990;SDS011;29654;50.784;20.604;2024-02-23T07:46:23;3.45;;;3.15;;
43990;SDS011;29654;50.784;20.604;2024-02-23T07:51:28;3.65;;;3.35;;
43990;SDS011;29654;50.784;20.604;2024-02-23T07:56:31;3.70;;;3.25;;
43990;SDS011;29654;50.784;20.604;2024-02-23T08:01:33;3.70;;;3.40;;
43990;SDS011;29654;50.784;20.604;2024-02-23T08:06:38;3.58;;;3.17;;
43990;SDS011;29654;50.784;20.604;2024-02-23T08:11:41;3.13;;;2.83;;
43990;SDS011;29654;50.784;20.604;2024-02-23T08:16:43;3.53;;;3.20;;
43990;SDS011;29654;50.784;20.604;2024-02-23T08:21:48;3.75;;;3.35;;
43990;SDS011;29654;50.784;20.604;2024-02-23T08:26:50;3.90;;;3.50;;
43990;SDS011;29654;50.784;20.604;2024-02-23T08:31:54;4.72;;;3.72;;
43990;SDS011;29654;50.784;20.604;2024-02-23T08:36:58;4.32;;;3.47;;
43990;SDS011;29654;50.784;20.604;2024-02-23T08:42:01;4.50;;;3.35;;
43990;SDS011;29654;50.784;20.604;2024-02-23T08:47:07;3.50;;;3.25;;
43990;SDS011;29654;50.784;20.604;2024-02-23T08:52:13;3.60;;;3.30;;
43990;SDS011;29654;50.784;20.604;2024-02-23T08:57:21;4.03;;;3.28;;
43990;SDS011;29654;50.784;20.604;2024-02-23T09:02:27;3.83;;;3.40;;
43990;SDS011;29654;50.784;20.604;2024-02-23T09:07:33;4.38;;;3.97;;
43990;SDS011;29654;50.784;20.604;2024-02-23T09:12:38;5.00;;;3.92;;
43990;SDS011;29654;50.784;20.604;2024-02-23T09:17:43;3.20;;;2.88;;
43990;SDS011;29654;50.784;20.604;2024-02-23T09:22:48;4.03;;;3.63;;
43990;SDS011;29654;50.784;20.604;2024-02-23T09:27:50;3.83;;;3.28;;
43990;SDS011;29654;50.784;20.604;2024-02-23T09:32:53;5.28;;;3.47;;
43990;SDS011;29654;50.784;20.604;2024-02-23T09:37:57;5.55;;;3.45;;
43990;SDS011;29654;50.784;20.604;2024-02-23T09:43:00;3.42;;;3.13;;
43990;SDS011;29654;50.784;20.604;2024-02-23T09:48:04;3.67;;;3.38;;
43990;SDS011;29654;50.784;20.604;2024-02-23T09:53:10;4.20;;;3.80;;
43990;SDS011;29654;50.784;20.604;2024-02-23T09:58:15;3.47;;;3.17;;
43990;SDS011;29654;50.784;20.604;2024-02-23T10:03:18;4.57;;;4.03;;
43990;SDS011;29654;50.784;20.604;2024-02-23T10:08:27;4.63;;;4.22;;
43990;SDS011;29654;50.784;20.604;2024-02-23T10:13:30;4.50;;;4.10;;
43990;SDS011;29654;50.784;20.604;2024-02-23T10:18:33;4.68;;;4.15;;
43990;SDS011;29654;50.784;20.604;2024-02-23T10:23:41;4.00;;;3.70;;
43990;SDS011;29654;50.784;20.604;2024-02-23T10:28:44;4.63;;;4.20;;
43990;SDS011;29654;50.784;20.604;2024-02-23T10:33:48;5.32;;;3.60;;
43990;SDS011;29654;50.784;20.604;2024-02-23T10:38:54;4.43;;;2.95;;
43990;SDS011;29654;50.784;20.604;2024-02-23T10:44:03;3.53;;;3.20;;
43990;SDS011;29654;50.784;20.604;2024-02-23T10:49:09;3.20;;;2.95;;
43990;SDS011;29654;50.784;20.604;2024-02-23T10:54:23;3.72;;;3.08;;
43990;SDS011;29654;50.784;20.604;2024-02-23T10:59:29;3.20;;;2.90;;
43990;SDS011;29654;50.784;20.604;2024-02-23T11:04:35;3.15;;;2.85;;
43990;SDS011;29654;50.784;20.604;2024-02-23T11:09:47;3.85;;;3.38;;
43990;SDS011;29654;50.784;20.604;2024-02-23T11:14:57;3.95;;;3.17;;
43990;SDS011;29654;50.784;20.604;2024-02-23T11:20:05;5.03;;;3.40;;
43990;SDS011;29654;50.784;20.604;2024-02-23T11:25:12;3.92;;;3.35;;
43990;SDS011;29654;50.784;20.604;2024-02-23T11:30:20;4.97;;;3.10;;
43990;SDS011;29654;50.784;20.604;2024-02-23T11:35:25;3.47;;;3.17;;
43990;SDS011;29654;50.784;20.604;2024-02-23T11:40:31;3.72;;;3.20;;
43990;SDS011;29654;50.784;20.604;2024-02-23T11:45:35;2.95;;;2.70;;
43990;SDS011;29654;50.784;20.604;2024-02-23T11:50:39;3.53;;;3.20;;
43990;SDS011;29654;50.784;20.604;2024-02-23T11:55:44;3.33;;;3.03;;
43990;SDS011;29654;50.784;20.604;2024-02-23T12:00:51;3.30;;;2.97;;
43990;SDS011;29654;50.784;20.604;2024-02-23T12:05:57;3.45;;;3.15;;
43990;SDS011;29654;50.784;20.604;2024-02-23T12:11:02;3.35;;;3.05;;
43990;SDS011;29654;50.784;20.604;2024-02-23T12:16:07;3.45;;;3.15;;
43990;SDS011;29654;50.784;20.604;2024-02-23T12:21:11;3.53;;;3.22;;
43990;SDS011;29654;50.784;20.604;2024-02-23T12:26:17;3.33;;;3.03;;
43990;SDS011;29654;50.784;20.604;2024-02-23T12:31:24;4.20;;;3.75;;
43990;SDS011;29654;50.784;20.604;2024-02-23T12:36:28;3.50;;;3.20;;
43990;SDS011;29654;50.784;20.604;2024-02-23T12:41:36;3.92;;;3.47;;
43990;SDS011;29654;50.784;20.604;2024-02-23T12:46:39;4.07;;;3.67;;
43990;SDS011;29654;50.784;20.604;2024-02-23T12:51:43;3.75;;;3.45;;
43990;SDS011;29654;50.784;20.604;2024-02-23T12:56:47;4.97;;;4.00;;
43990;SDS011;29654;50.784;20.604;2024-02-23T13:01:51;4.45;;;4.00;;
43990;SDS011;29654;50.784;20.604;2024-02-23T13:06:54;4.40;;;4.00;;
43990;SDS011;29654;50.784;20.604;2024-02-23T13:12:00;4.95;;;4.13;;
43990;SDS011;29654;50.784;20.604;2024-02-23T13:17:03;4.88;;;4.25;;
43990;SDS011;29654;50.784;20.604;2024-02-23T13:22:06;4.90;;;4.38;;
43990;SDS011;29654;50.784;20.604;2024-02-23T13:27:10;4.93;;;4.43;;
43990;SDS011;29654;50.784;20.604;2024-02-23T13:32:14;5.53;;;4.40;;
43990;SDS011;29654;50.784;20.604;2024-02-23T13:37:19;6.20;;;4.88;;
43990;SDS011;29654;50.784;20.604;2024-02-23T13:42:26;4.88;;;4.32;;
43990;SDS011;29654;50.784;20.604;2024-02-23T13:47:30;5.45;;;4.78;;
43990;SDS011;29654;50.784;20.604;2024-02-23T13:52:35;5.00;;;4.60;;
43990;SDS011;29654;50.784;20.604;2024-02-23T13:57:40;4.85;;;4.43;;
43990;SDS011;29654;50.784;20.604;2024-02-23T14:02:44;5.20;;;4.70;;
43990;SDS011;29654;50.784;20.604;2024-02-23T14:07:49;5.25;;;4.75;;
43990;SDS011;29654;50.784;20.604;2024-02-23T14:12:55;4.50;;;4.13;;
43990;SDS011;29654;50.784;20.604;2024-02-23T14:18:00;4.65;;;4.22;;
43990;SDS011;29654;50.784;20.604;2024-02-23T14:23:04;4.55;;;4.15;;
43990;SDS011;29654;50.784;20.604;2024-02-23T14:28:09;6.60;;;5.22;;
43990;SDS011;29654;50.784;20.604;2024-02-23T14:33:13;6.68;;;5.43;;
43990;SDS011;29654;50.784;20.604;2024-02-23T14:38:16;4.60;;;4.20;;
43990;SDS011;29654;50.784;20.604;2024-02-23T14:43:21;5.05;;;4.55;;
43990;SDS011;29654;50.784;20.604;2024-02-23T14:48:24;4.40;;;3.97;;
43990;SDS011;29654;50.784;20.604;2024-02-23T14:53:28;4.65;;;4.15;;
43990;SDS011;29654;50.784;20.604;2024-02-23T14:58:33;4.47;;;3.90;;
43990;SDS011;29654;50.784;20.604;2024-02-23T15:03:36;4.50;;;4.10;;
43990;SDS011;29654;50.784;20.604;2024-02-23T15:08:39;4.25;;;3.85;;
43990;SDS011;29654;50.784;20.604;2024-02-23T15:13:43;4.07;;;3.65;;
43990;SDS011;29654;50.784;20.604;2024-02-23T15:18:46;4.47;;;3.80;;
43990;SDS011;29654;50.784;20.604;2024-02-23T15:23:49;4.90;;;3.40;;
43990;SDS011;29654;50.784;20.604;2024-02-23T15:28:53;4.72;;;3.90;;
43990;SDS011;29654;50.784;20.604;2024-02-23T15:33:56;4.32;;;3.72;;
43990;SDS011;29654;50.784;20.604;2024-02-23T15:39:00;4.82;;;3.88;;
43990;SDS011;29654;50.784;20.604;2024-02-23T15:44:09;5.13;;;3.85;;
43990;SDS011;29654;50.784;20.604;2024-02-23T15:49:12;4.88;;;3.65;;
43990;SDS011;29654;50.784;20.604;2024-02-23T15:54:18;4.97;;;4.20;;
43990;SDS011;29654;50.784;20.604;2024-02-23T15:59:23;5.03;;;4.38;;
43990;SDS011;29654;50.784;20.604;2024-02-23T16:04:25;5.85;;;5.18;;
43990;SDS011;29654;50.784;20.604;2024-02-23T16:09:28;5.88;;;5.22;;
43990;SDS011;29654;50.784;20.604;2024-02-23T16:14:33;5.15;;;4.65;;
43990;SDS011;29654;50.784;20.604;2024-02-23T16:19:37;6.95;;;4.95;;
43990;SDS011;29654;50.784;20.604;2024-02-23T16:24:40;5.28;;;4.78;;
43990;SDS011;29654;50.784;20.604;2024-02-23T16:29:45;7.35;;;5.88;;
43990;SDS011;29654;50.784;20.604;2024-02-23T16:34:48;5.55;;;4.95;;
43990;SDS011;29654;50.784;20.604;2024-02-23T16:39:51;6.47;;;5.45;;
43990;SDS011;29654;50.784;20.604;2024-02-23T16:44:55;6.65;;;5.90;;
43990;SDS011;29654;50.784;20.604;2024-02-23T16:49:58;7.60;;;5.80;;
43990;SDS011;29654;50.784;20.604;2024-02-23T16:55:01;6.68;;;5.93;;
43990;SDS011;29654;50.784;20.604;2024-02-23T17:00:06;7.80;;;6.10;;
43990;SDS011;29654;50.784;20.604;2024-02-23T17:05:10;7.85;;;7.05;;
43990;SDS011;29654;50.784;20.604;2024-02-23T17:10:13;7.80;;;7.00;;
43990;SDS011;29654;50.784;20.604;2024-02-23T17:15:18;11.90;;;9.68;;
43990;SDS011;29654;50.784;20.604;2024-02-23T17:20:22;12.27;;;10.30;;
43990;SDS011;29654;50.784;20.604;2024-02-23T17:25:25;14.02;;;12.15;;
43990;SDS011;29654;50.784;20.604;2024-02-23T17:30:29;18.15;;;15.88;;
43990;SDS011;29654;50.784;20.604;2024-02-23T17:35:32;13.00;;;11.25;;
43990;SDS011;29654;50.784;20.604;2024-02-23T17:41:12;12.60;;;11.00;;
43990;SDS011;29654;50.784;20.604;2024-02-23T17:46:17;14.30;;;11.20;;
43990;SDS011;29654;50.784;20.604;2024-02-23T17:51:20;15.77;;;11.98;;
43990;SDS011;29654;50.784;20.604;2024-02-23T17:56:23;15.82;;;11.60;;
43990;SDS011;29654;50.784;20.604;2024-02-23T18:01:27;19.55;;;14.48;;
43990;SDS011;29654;50.784;20.604;2024-02-23T18:06:30;22.63;;;15.77;;
43990;SDS011;29654;50.784;20.604;2024-02-23T18:11:33;19.60;;;16.13;;
43990;SDS011;29654;50.784;20.604;2024-02-23T18:16:39;22.35;;;15.35;;
43990;SDS011;29654;50.784;20.604;2024-02-23T18:21:42;18.90;;;15.68;;
43990;SDS011;29654;50.784;20.604;2024-02-23T18:26:45;14.13;;;12.65;;
43990;SDS011;29654;50.784;20.604;2024-02-23T18:31:50;18.80;;;16.35;;
43990;SDS011;29654;50.784;20.604;2024-02-23T18:36:53;28.45;;;22.40;;
43990;SDS011;29654;50.784;20.604;2024-02-23T18:41:56;22.50;;;20.10;;
43990;SDS011;29654;50.784;20.604;2024-02-23T18:47:00;22.50;;;18.77;;
43990;SDS011;29654;50.784;20.604;2024-02-23T18:52:03;17.25;;;15.55;;
43990;SDS011;29654;50.784;20.604;2024-02-23T18:57:09;21.17;;;18.48;;
43990;SDS011;29654;50.784;20.604;2024-02-23T19:02:13;20.60;;;18.02;;
43990;SDS011;29654;50.784;20.604;2024-02-23T19:07:16;19.48;;;17.08;;
43990;SDS011;29654;50.784;20.604;2024-02-23T19:12:19;20.98;;;18.35;;
43990;SDS011;29654;50.784;20.604;2024-02-23T19:17:24;24.13;;;21.38;;
43990;SDS011;29654;50.784;20.604;2024-02-23T19:22:27;23.13;;;20.63;;
43990;SDS011;29654;50.784;20.604;2024-02-23T19:27:29;21.58;;;19.27;;
43990;SDS011;29654;50.784;20.604;2024-02-23T19:32:34;27.00;;;23.83;;
43990;SDS011;29654;50.784;20.604;2024-02-23T19:37:36;18.88;;;16.88;;
43990;SDS011;29654;50.784;20.604;2024-02-23T19:42:39;18.95;;;16.15;;
43990;SDS011;29654;50.784;20.604;2024-02-23T19:47:43;19.08;;;15.68;;
43990;SDS011;29654;50.784;20.604;2024-02-23T19:52:46;25.27;;;20.35;;
43990;SDS011;29654;50.784;20.604;2024-02-23T19:57:49;26.65;;;22.25;;
43990;SDS011;29654;50.784;20.604;2024-02-23T20:02:53;22.88;;;20.40;;
43990;SDS011;29654;50.784;20.604;2024-02-23T20:07:56;22.20;;;18.55;;
43990;SDS011;29654;50.784;20.604;2024-02-23T20:12:59;19.45;;;14.30;;
43990;SDS011;29654;50.784;20.604;2024-02-23T20:18:04;25.98;;;17.08;;
43990;SDS011;29654;50.784;20.604;2024-02-23T20:23:07;28.95;;;18.83;;
43990;SDS011;29654;50.784;20.604;2024-02-23T20:28:10;35.67;;;19.48;;
43990;SDS011;29654;50.784;20.604;2024-02-23T20:33:15;13.65;;;11.63;;
43990;SDS011;29654;50.784;20.604;2024-02-23T20:38:19;14.15;;;11.55;;
43990;SDS011;29654;50.784;20.604;2024-02-23T20:43:22;14.68;;;11.52;;
43990;SDS011;29654;50.784;20.604;2024-02-23T20:48:28;13.73;;;9.93;;
43990;SDS011;29654;50.784;20.604;2024-02-23T20:53:30;9.85;;;8.85;;
43990;SDS011;29654;50.784;20.604;2024-02-23T20:58:33;10.77;;;9.23;;
43990;SDS011;29654;50.784;20.604;2024-02-23T21:03:37;12.90;;;10.40;;
43990;SDS011;29654;50.784;20.604;2024-02-23T21:08:40;11.55;;;9.50;;
43990;SDS011;29654;50.784;20.604;2024-02-23T21:13:43;10.95;;;8.93;;
43990;SDS011;29654;50.784;20.604;2024-02-23T21:18:47;10.65;;;8.63;;
43990;SDS011;29654;50.784;20.604;2024-02-23T21:23:50;9.80;;;8.82;;
43990;SDS011;29654;50.784;20.604;2024-02-23T21:28:53;10.00;;;8.70;;
43990;SDS011;29654;50.784;20.604;2024-02-23T21:33:58;9.63;;;8.57;;
43990;SDS011;29654;50.784;20.604;2024-02-23T21:39:01;10.80;;;8.95;;
43990;SDS011;29654;50.784;20.604;2024-02-23T21:44:05;11.52;;;9.10;;
43990;SDS011;29654;50.784;20.604;2024-02-23T21:49:09;10.13;;;9.02;;
43990;SDS011;29654;50.784;20.604;2024-02-23T21:54:12;9.63;;;8.52;;
43990;SDS011;29654;50.784;20.604;2024-02-23T21:59:14;10.80;;;9.70;;
43990;SDS011;29654;50.784;20.604;2024-02-23T22:04:19;13.77;;;11.73;;
43990;SDS011;29654;50.784;20.604;2024-02-23T22:09:22;15.35;;;11.82;;
43990;SDS011;29654;50.784;20.604;2024-02-23T22:14:27;11.50;;;10.10;;
43990;SDS011;29654;50.784;20.604;2024-02-23T22:19:32;11.07;;;9.35;;
43990;SDS011;29654;50.784;20.604;2024-02-23T22:24:35;8.85;;;7.80;;
43990;SDS011;29654;50.784;20.604;2024-02-23T22:29:39;8.85;;;7.95;;
43990;SDS011;29654;50.784;20.604;2024-02-23T22:34:44;8.55;;;7.75;;
43990;SDS011;29654;50.784;20.604;2024-02-23T22:39:47;8.55;;;7.75;;
43990;SDS011;29654;50.784;20.604;2024-02-23T22:44:51;8.43;;;7.55;;
43990;SDS011;29654;50.784;20.604;2024-02-23T22:49:56;8.30;;;7.40;;
43990;SDS011;29654;50.784;20.604;2024-02-23T22:54:59;8.35;;;6.97;;
43990;SDS011;29654;50.784;20.604;2024-02-23T23:00:02;8.80;;;7.32;;
43990;SDS011;29654;50.784;20.604;2024-02-23T23:05:08;8.10;;;6.55;;
43990;SDS011;29654;50.784;20.604;2024-02-23T23:10:11;8.38;;;6.50;;
43990;SDS011;29654;50.784;20.604;2024-02-23T23:15:14;7.40;;;6.70;;
43990;SDS011;29654;50.784;20.604;2024-02-23T23:20:19;8.57;;;6.60;;
43990;SDS011;29654;50.784;20.604;2024-02-23T23:25:21;6.90;;;6.20;;
43990;SDS011;29654;50.784;20.604;2024-02-23T23:30:24;7.03;;;6.40;;
43990;SDS011;29654;50.784;20.604;2024-02-23T23:35:28;8.57;;;6.95;;
43990;SDS011;29654;50.784;20.604;2024-02-23T23:40:31;7.75;;;6.50;;
43990;SDS011;29654;50.784;20.604;2024-02-23T23:45:34;8.15;;;7.10;;
43990;SDS011;29654;50.784;20.604;2024-02-23T23:50:39;7.93;;;6.85;;
43990;SDS011;29654;50.784;20.604;2024-02-23T23:55:41;8.77;;;6.63;;
